Data for 06/26/2017

Time Sea-Level Adjusted Pressure Absolute Pressure Temperature Relative Humidity Dew Point   
(mb) (inHg) (mb) (inHg) (C) (F) (%) (C) (F)
00:05 1023 30.21 852 25.16 17.8 64 33 1.6 34.9
00:10 1023 30.21 852 25.16 17.8 64 34 1.7 35
00:15 1023 30.21 852 25.16 17.6 63.8 34 1.6 34.9
00:20 1023 30.21 852 25.16 17.7 63.8 33 1.5 34.6
00:25 1023 30.21 852 25.16 17.5 63.5 34 1.4 34.6
00:30 1023 30.21 852 25.16 17.4 63.3 34 1.6 34.9
00:35 1023 30.21 852 25.16 17.2 62.9 35 1.5 34.8
00:40 1023 30.21 852 25.16 17.1 62.9 34 1.3 34.4
00:45 1023 30.21 852 25.16 17.1 62.8 34 1.3 34.3
00:50 1023 30.21 852 25.16 17.1 62.8 34 1.1 33.9
00:55 1023 30.21 852 25.16 17.2 62.9 34 1.1 34
01:00 1023 30.21 852 25.16 17.2 62.9 34 1.1 34
01:05 1023 30.21 852 25.16 17.1 62.8 34 1.2 34.1
01:10 1023 30.21 852 25.16 16.9 62.5 34 1.1 34
01:15 1023 30.21 852 25.16 16.9 62.3 35 1.3 34.4
01:20 1023 30.21 852 25.16 16.1 61 39 2.1 35.9
01:25 1023 30.21 852 25.16 15.7 60.2 39 1.8 35.2
01:30 1023 30.21 852 25.16 15.6 60 39 1.8 35.2
01:35 1023 30.21 852 25.16 15.5 59.9 39 1.7 35
01:40 1023 30.21 852 25.16 15.5 59.9 38 1.5 34.7
01:45 1023 30.21 852 25.16 15.6 60.1 38 1.5 34.8
01:50 1023 30.21 852 25.16 15.6 60.1 38 1.6 34.8
01:55 1023 30.21 852 25.16 15.5 59.9 40 2.2 36
02:00 1023 30.21 852 25.16 15 59 41 1.9 35.4
02:05 1023 30.21 852 25.16 14.8 58.7 41 1.8 35.3
02:10 1023 30.21 852 25.16 14.8 58.7 41 1.6 34.9
02:15 1023 30.21 852 25.16 14.9 58.7 41 1.7 35
02:20 1023 30.21 852 25.16 14.9 58.8 40 1.5 34.8
02:25 1023 30.21 852 25.16 14.9 58.7 40 1.5 34.6
02:30 1023 30.21 852 25.16 14.9 58.9 40 1.6 34.8
02:35 1023 30.21 852 25.16 14.8 58.6 40 1.5 34.6
02:40 1023 30.21 852 25.16 14.8 58.6 40 1.5 34.6
02:45 1023 30.21 852 25.16 14.6 58.4 41 1.7 35
02:50 1023 30.21 852 25.16 14.3 57.8 42 1.8 35.2
02:55 1023 30.21 852 25.16 14.1 57.4 42 1.6 35
03:00 1023 30.21 852 25.16 14 57.2 43 1.7 35
03:05 1023 30.21 852 25.16 14 57.2 42 1.5 34.8
03:10 1023 30.21 852 25.16 14 57.3 42 1.5 34.8
03:15 1023 30.21 852 25.16 14.1 57.5 43 1.7 35
03:20 1023 30.21 852 25.16 14 57.2 43 1.9 35.4
03:25 1023 30.21 852 25.16 13.7 56.6 44 1.9 35.3
03:30 1023 30.21 852 25.16 13.6 56.5 44 1.6 34.9
03:35 1023 30.21 852 25.16 13.6 56.5 44 1.7 35.1
03:40 1023 30.21 852 25.16 13.6 56.4 43 1.4 34.5
03:45 1023 30.21 852 25.16 13.7 56.6 43 1.3 34.4
03:50 1023 30.21 852 25.16 13.7 56.7 43 1.3 34.3
03:55 1023 30.21 852 25.16 13.7 56.7 43 1.6 34.9
04:00 1023 30.21 852 25.16 13.6 56.4 43 1.4 34.5
04:05 1023 30.21 852 25.16 13.4 56.1 44 1.4 34.5
04:10 1023 30.21 852 25.16 13.4 56 43 1.2 34.1
04:15 1023 30.21 852 25.16 13.6 56.5 42 1 33.9
04:20 1023 30.21 852 25.16 13.7 56.7 42 1 33.8
04:25 1023 30.21 852 25.16 13.7 56.7 42 1.2 34.2
04:30 1023 30.21 852 25.16 13.5 56.3 42 1 33.8
04:35 1023 30.21 852 25.16 13.6 56.5 42 1 33.8
04:40 1023 30.21 852 25.16 13.5 56.4 42 1 33.8
04:45 1023 30.21 852 25.16 13.6 56.4 42 0.9 33.7
04:50 1023 30.21 852 25.16 13.6 56.5 41 0.8 33.4
04:55 1023 30.21 852 25.16 13.7 56.7 41 0.8 33.5
05:00 1023 30.21 852 25.16 13.8 56.9 40 0.7 33.2
05:05 1023 30.21 852 25.16 13.8 56.9 42 1.2 34.2
05:10 1023 30.21 852 25.16 13.2 55.8 44 1.2 34.2
05:15 1023 30.21 852 25.16 13.3 56 42 0.7 33.3
05:20 1023 30.21 852 25.16 13.9 57 40 0.5 32.9
05:25 1022 30.18 852 25.16 14.3 57.7 39 0.7 33.2
05:30 1022 30.18 852 25.16 14.2 57.6 39 0.7 33.2
05:35 1022 30.18 852 25.16 14.2 57.6 39 0.6 33.1
05:40 1022 30.18 852 25.16 14.3 57.8 40 1 33.8
05:45 1022 30.18 852 25.16 14.3 57.8 39 0.7 33.2
05:50 1022 30.18 852 25.16 14.5 58.1 39 0.9 33.6
05:55 1022 30.18 851 25.13 14.6 58.3 39 1 33.9
06:00 1022 30.18 851 25.13 14.7 58.5 39 1.2 34.1
06:05 1022 30.18 851 25.13 14.8 58.7 39 1.3 34.3
06:10 1022 30.18 851 25.13 15.1 59.2 38 0.9 33.6
06:15 1022 30.18 851 25.13 15.6 60.1 35 0.3 32.6
06:20 1022 30.18 851 25.13 16 60.7 36 1 33.8
06:25 1022 30.18 851 25.13 16.1 61.1 36 1.1 33.9
06:30 1022 30.18 851 25.13 16.4 61.6 36 1.4 34.5
06:35 1022 30.18 851 25.13 16.6 62 36 1.8 35.2
06:40 1022 30.18 851 25.13 16.6 61.9 36 1.7 35
06:45 1022 30.18 851 25.13 16.8 62.2 37 2 35.6
06:50 1022 30.18 851 25.13 17 62.6 38 2.6 36.6
06:55 1022 30.18 851 25.13 17.1 62.8 38 2.9 37.3
07:00 1022 30.18 851 25.13 17.6 63.6 36 2.5 36.5
07:05 1022 30.18 851 25.13 17.9 64.2 36 2.7 36.9
07:10 1022 30.18 851 25.13 18.2 64.8 36 3 37.3
07:15 1022 30.18 851 25.13 18.5 65.3 34 2.4 36.4
07:20 1022 30.18 851 25.13 19 66.2 33 2.4 36.3
07:25 1022 30.18 851 25.13 19.6 67.3 32 2.8 37
07:30 1022 30.18 851 25.13 19.9 67.8 33 3.4 38.1
07:35 1022 30.18 851 25.13 19.7 67.4 32 2.8 37.1
07:40 1022 30.18 851 25.13 19.5 67.1 37 4.7 40.4
07:45 1022 30.18 851 25.13 19.1 66.4 40 5.3 41.5
07:50 1022 30.18 851 25.13 19.1 66.3 38 4.6 40.2
07:55 1022 30.18 851 25.13 19.3 66.7 34 3.3 37.9
08:00 1022 30.18 851 25.13 19.7 67.4 34 3.5 38.3
08:05 1021 30.15 851 25.13 20.7 69.3 31 3.1 37.6
08:10 1021 30.15 851 25.13 21.4 70.5 29 2.8 37
08:15 1021 30.15 850 25.1 22.1 71.7 33 5.3 41.5
08:20 1021 30.15 850 25.1 21.4 70.5 34 5.2 41.4
08:25 1021 30.15 850 25.1 21.1 69.9 36 5.5 41.9
08:30 1021 30.15 850 25.1 21.8 71.2 34 5.4 41.6
08:35 1021 30.15 850 25.1 22.4 72.3 33 5.5 41.9
08:40 1021 30.15 850 25.1 22.6 72.7 32 5.2 41.4
08:45 1021 30.15 850 25.1 23.1 73.5 31 5.3 41.5
08:50 1021 30.15 850 25.1 23.1 73.6 31 5.1 41.2
08:55 1021 30.15 850 25.1 23 73.4 32 5.7 42.3
09:00 1021 30.15 850 25.1 23.2 73.7 32 5.8 42.5
09:05 1021 30.15 850 25.1 23.3 73.9 32 6 42.8
09:10 1021 30.15 850 25.1 23.6 74.5 31 5.6 42
09:15 1021 30.15 850 25.1 24.2 75.5 30 5.6 42.1
09:20 1021 30.15 850 25.1 23.1 73.6 33 6.2 43.2
09:25 1021 30.15 850 25.1 22.5 72.6 31 4.7 40.4
09:30 1021 30.15 850 25.1 23.3 73.9 31 5.4 41.6
09:35 1021 30.15 850 25.1 23 73.3 32 5.6 42.1
09:40 1021 30.15 850 25.1 23.5 74.3 31 5.6 42.1
09:45 1020 30.12 850 25.1 22.9 73.1 32 5.3 41.5
09:50 1020 30.12 850 25.1 23 73.5 31 5.4 41.7
09:55 1020 30.12 850 25.1 24.1 75.4 29 5 41
10:00 1020 30.12 850 25.1 24.8 76.7 28 5.4 41.8
10:05 1020 30.12 850 25.1 25.2 77.4 28 5.6 42
10:10 1020 30.12 850 25.1 25.5 77.8 28 6.1 42.9
10:15 1020 30.12 849 25.07 24.2 75.5 30 5.6 42.1
10:20 1020 30.12 849 25.07 25.2 77.3 28 5.5 41.8
10:25 1020 30.12 849 25.07 26.3 79.3 27 6.1 43
10:30 1020 30.12 849 25.07 26.3 79.3 27 6 42.9
10:35 1020 30.12 849 25.07 26.4 79.6 27 6.3 43.3
10:40 1020 30.12 849 25.07 26.6 79.9 27 6.2 43.2
10:45 1020 30.12 849 25.07 26.2 79.2 27 6 42.7
10:50 1020 30.12 849 25.07 26.6 79.8 27 6.3 43.4
10:55 1020 30.12 849 25.07 27.7 81.9 25 5.9 42.7
11:00 1020 30.12 849 25.07 28.6 83.5 24 6.3 43.4
11:05 1020 30.12 849 25.07 28.1 82.5 24 5.9 42.6
11:10 1020 30.12 849 25.07 29.1 84.3 23 6.4 43.5
11:15 1019 30.09 849 25.07 29.2 84.6 24 6.8 44.2
11:20 1019 30.09 849 25.07 28.7 83.6 24 6.5 43.7
11:25 1019 30.09 848 25.04 28.4 83.2 24 6.1 43.1
11:30 1019 30.09 848 25.04 28.8 83.9 22 5.6 42.1
11:35 1019 30.09 848 25.04 29.6 85.2 20 4.8 40.6
11:40 1019 30.09 848 25.04 29.3 84.8 21 5 41.1
11:45 1019 30.09 848 25.04 28.6 83.5 20 3.8 38.8
11:50 1019 30.09 848 25.04 28.9 84.1 23 5.8 42.5
11:55 1019 30.09 848 25.04 29.4 85 20 4.6 40.2
12:00 1019 30.09 848 25.04 30 86 19 4.2 39.6
12:05 1019 30.09 848 25.04 30.6 87.1 18 4 39.2
12:10 1019 30.09 848 25.04 30.6 87.1 18 3.8 38.9
12:15 1018 30.06 848 25.04 31.2 88.2 17 3.5 38.3
12:20 1018 30.06 848 25.04 31.1 88 17 3.2 37.8
12:25 1018 30.06 848 25.04 30 85.9 19 3.9 39
12:30 1018 30.06 847 25.01 29.8 85.7 19 3.9 39
12:35 1018 30.06 847 25.01 30.6 87.1 18 3.9 39
12:40 1018 30.06 847 25.01 30.8 87.4 18 3.8 38.8
12:45 1018 30.06 847 25.01 31.1 87.9 16 3.1 37.5
12:50 1018 30.06 847 25.01 30.8 87.4 18 4.1 39.4
12:55 1018 30.06 847 25.01 29.5 85.1 19 3.5 38.3
13:00 1018 30.06 847 25.01 30.7 87.2 17 3.2 37.8
13:05 1018 30.06 847 25.01 31.7 89.1 17 4.1 39.3
13:10 1018 30.06 847 25.01 31.9 89.5 16 3.1 37.6
13:15 1018 30.06 847 25.01 31.9 89.4 17 4 39.2
13:20 1018 30.06 847 25.01 31.8 89.3 17 3.9 39
13:25 1017 30.03 847 25.01 32.3 90.1 15 2.8 37
13:30 1017 30.03 846 24.98 32.8 91 15 3.1 37.6
13:35 1017 30.03 846 24.98 33.3 91.9 15 3.5 38.2
13:40 1017 30.03 846 24.98 31.9 89.4 17 4.3 39.8
13:45 1017 30.03 846 24.98 31.6 88.9 16 3.5 38.3
13:50 1017 30.03 846 24.98 31.9 89.4 16 3.1 37.6
13:55 1017 30.03 846 24.98 31.8 89.3 17 4.1 39.4
14:00 1017 30.03 846 24.98 31.3 88.3 17 3.9 39.1
14:05 1017 30.03 846 24.98 31.9 89.4 16 3 37.3
14:10 1017 30.03 846 24.98 32.6 90.7 15 3.4 38.1
14:15 1017 30.03 846 24.98 33.2 91.7 15 3 37.5
14:20 1017 30.03 846 24.98 32.9 91.3 14 2.7 36.8
14:25 1017 30.03 846 24.98 32.5 90.5 15 3 37.4
14:30 1017 30.03 846 24.98 33.2 91.7 14 2.2 36
14:35 1017 30.03 846 24.98 33.3 92 13 2.1 35.7
14:40 1017 30.03 846 24.98 33 91.3 12 0.4 32.7
14:45 1016 30 846 24.98 32.4 90.3 14 1.4 34.6
14:50 1016 30 846 24.98 31.4 88.4 13 -0.4 31.4
14:55 1016 30 846 24.98 31.4 88.5 14 0.7 33.2
15:00 1016 30 846 24.98 31.6 88.9 14 1.1 34
15:05 1016 30 846 24.98 31.8 89.2 14 1.6 34.8
15:10 1016 30 845 24.95 32.2 89.9 14 1.8 35.3
15:15 1016 30 845 24.95 32.7 90.8 13 1.5 34.7
15:20 1016 30 845 24.95 32.3 90.1 13 0.6 33.1
15:25 1016 30 845 24.95 32.6 90.7 12 -0.6 30.9
15:30 1016 30 845 24.95 32.2 89.9 11 -1.7 28.9
15:35 1016 30 845 24.95 31.9 89.3 12 -1.1 30
15:40 1016 30 845 24.95 32.1 89.7 12 0 32.1
15:45 1016 30 845 24.95 32 89.7 11 -1.3 29.7
15:50 1016 30 845 24.95 32.1 89.8 11 -1.9 28.6
15:55 1016 30 845 24.95 32.4 90.2 10 -2.8 27
16:00 1016 30 845 24.95 32.6 90.6 10 -2.9 26.9
16:05 1016 30 845 24.95 32.3 90.2 11 -2.1 28.3
16:10 1016 30 845 24.95 32.5 90.6 10 -3.1 26.4
16:15 1015 29.97 845 24.95 32.9 91.2 10 -2.5 27.5
16:20 1015 29.97 844 24.92 32.9 91.2 10 -1.9 28.6
16:25 1015 29.97 844 24.92 31.9 89.4 10 -3 26.6
16:30 1015 29.97 844 24.92 31.9 89.4 11 -1.7 28.9
16:35 1015 29.97 844 24.92 31.7 89.1 10 -2.9 26.7
16:40 1015 29.97 844 24.92 31.6 88.8 11 -1.8 28.8
16:45 1015 29.97 844 24.92 32.2 90 10 -3.1 26.4
16:50 1015 29.97 844 24.92 32.5 90.4 10 -2.9 26.8
16:55 1015 29.97 844 24.92 32.4 90.4 11 -1.5 29.3
17:00 1015 29.97 844 24.92 32.2 90 11 -2.1 28.3
17:05 1015 29.97 844 24.92 32.3 90.1 11 -1.7 29
17:10 1015 29.97 844 24.92 32.1 89.7 11 -1.6 29.1
17:15 1015 29.97 844 24.92 31.7 89.1 11 -2.5 27.6
17:20 1014 29.94 844 24.92 31.8 89.2 10 -2.6 27.3
17:25 1015 29.97 844 24.92 31.4 88.5 11 -2.1 28.3
17:30 1015 29.97 844 24.92 31.6 88.8 14 0.8 33.5
17:35 1015 29.97 844 24.92 29.7 85.4 15 0.5 32.9
17:40 1015 29.97 844 24.92 29 84.2 17 1.5 34.6
17:45 1015 29.97 844 24.92 28.6 83.5 16 0.8 33.4
17:50 1015 29.97 844 24.92 28.6 83.5 17 1.2 34.2
17:55 1015 29.97 844 24.92 28.7 83.7 18 2.1 35.8
18:00 1014 29.94 844 24.92 28.9 84 17 1.8 35.3
18:05 1014 29.94 844 24.92 29 84.3 18 2.3 36.2
18:10 1014 29.94 844 24.92 29.1 84.3 18 2.3 36.2
18:15 1014 29.94 843 24.89 28.8 83.9 19 2.8 37.1
18:20 1014 29.94 843 24.89 28.8 83.8 18 2.5 36.6
18:25 1014 29.94 843 24.89 28.5 83.3 18 2.3 36.1
18:30 1014 29.94 843 24.89 28.1 82.6 18 2 35.7
18:35 1014 29.94 843 24.89 27.9 82.2 17 1.1 34
18:40 1014 29.94 843 24.89 27.6 81.7 19 2.1 35.8
18:45 1014 29.94 843 24.89 27.4 81.3 19 2 35.6
18:50 1014 29.94 843 24.89 27.3 81.1 20 2.6 36.7
18:55 1014 29.94 843 24.89 27.1 80.7 20 2.7 36.9
19:00 1014 29.94 843 24.89 26.9 80.4 19 1.8 35.2
19:05 1014 29.94 843 24.89 27.1 80.7 18 0.9 33.7
19:10 1014 29.94 843 24.89 27.5 81.4 17 0.3 32.5
19:15 1014 29.94 843 24.89 27.5 81.6 18 1.1 34.1
19:20 1014 29.94 843 24.89 27.2 81 18 1.1 34
19:25 1014 29.94 843 24.89 27.2 80.9 16 -0.6 31
19:30 1013 29.91 843 24.89 27.3 81.1 18 1.3 34.3
19:35 1013 29.91 843 24.89 26.8 80.3 18 0.7 33.3
19:40 1014 29.94 843 24.89 26.9 80.5 18 0.8 33.4
19:45 1014 29.94 843 24.89 26.6 79.9 19 1.3 34.4
19:50 1013 29.91 843 24.89 26.3 79.4 19 1.4 34.5
19:55 1013 29.91 843 24.89 26.2 79.2 19 1.3 34.3
20:00 1013 29.91 843 24.89 26.1 78.9 21 2.1 35.8
20:05 1013 29.91 843 24.89 25.8 78.4 21 1.8 35.2
20:10 1014 29.94 843 24.89 25.6 78 21 2 35.6
20:15 1014 29.94 843 24.89 25.6 78.1 20 1.4 34.6
20:20 1014 29.94 843 24.89 25.5 77.9 23 3.2 37.7
20:25 1014 29.94 843 24.89 25.3 77.5 22 2.2 36
20:30 1014 29.94 843 24.89 24.9 76.8 23 2.3 36.2
20:35 1014 29.94 843 24.89 24.6 76.3 23 2.2 35.9
20:40 1014 29.94 843 24.89 24.2 75.6 23 2.2 36
20:45 1014 29.94 843 24.89 24.1 75.3 23 1.9 35.5
20:50 1014 29.94 843 24.89 24.3 75.7 23 2 35.6
20:55 1014 29.94 843 24.89 24.3 75.7 23 2 35.7
21:00 1014 29.94 843 24.89 24.6 76.3 22 1.7 35
21:05 1014 29.94 843 24.89 24.5 76.1 22 1.7 35
21:10 1014 29.94 843 24.89 24.4 75.9 22 1.6 34.9
21:15 1014 29.94 843 24.89 24.3 75.8 23 2.1 35.7
21:20 1014 29.94 843 24.89 24.3 75.8 23 2.2 36
21:25 1014 29.94 843 24.89 23.9 75 26 3.5 38.3
21:30 1014 29.94 844 24.92 23.5 74.3 27 3.4 38.2
21:35 1015 29.97 844 24.92 23.3 74 30 5 41
21:40 1015 29.97 844 24.92 22.6 72.6 30 4.5 40.1
21:45 1015 29.97 845 24.95 22.6 72.6 29 4 39.1
21:50 1016 30 845 24.95 23 73.3 26 2.5 36.6
21:55 1016 30 845 24.95 23.6 74.6 25 2.5 36.5
22:00 1016 30 845 24.95 23.7 74.6 27 3.7 38.6
22:05 1016 30 845 24.95 23.3 74 27 3.7 38.7
22:10 1016 30 845 24.95 23.1 73.5 28 3.8 38.8
22:15 1016 30 845 24.95 22.8 73.1 28 3.8 38.9
22:20 1016 30 846 24.98 22.8 73 28 3.3 38
22:25 1016 30 846 24.98 22.9 73.2 28 3.6 38.5
22:30 1016 30 845 24.95 22.8 73.1 28 3.6 38.5
22:35 1016 30 846 24.98 22.8 73 29 3.9 39
22:40 1016 30 846 24.98 22.6 72.7 29 3.9 39
22:45 1017 30.03 846 24.98 22.5 72.5 29 3.7 38.6
22:50 1017 30.03 846 24.98 22.2 71.9 31 4.6 40.3
22:55 1017 30.03 846 24.98 21.8 71.3 31 4 39.1
23:00 1017 30.03 846 24.98 21.8 71.3 31 4.1 39.4
23:05 1017 30.03 847 25.01 22.1 71.8 30 4 39.2
23:10 1018 30.06 847 25.01 22.3 72.1 32 5 41
23:15 1018 30.06 847 25.01 22 71.6 33 5.4 41.7
23:20 1018 30.06 847 25.01 21.4 70.4 38 6.5 43.8
23:25 1018 30.06 847 25.01 20.6 69 41 7.1 44.8
23:30 1018 30.06 847 25.01 20.3 68.5 39 6.2 43.1
23:35 1018 30.06 847 25.01 20 68 48 8.9 48
23:40 1018 30.06 847 25.01 18.8 65.9 51 8.7 47.6
23:45 1018 30.06 847 25.01 18.4 65.2 51 8.3 47
23:50 1018 30.06 847 25.01 18.4 65.1 52 8.6 47.4
23:55 1017 30.03 847 25.01 18.3 65 54 8.9 48
24:00 1017 30.03 846 24.98 18.2 64.7 57 9.7 49.5